Mostly Cloudy Current Weather (METAR) For London Heathrow Airport

All times on the weather descriptions are local

Observed at 23:50 - (6 mins ago)

Mostly Cloudy

10°C

Mostly Cloudy
Clouds: Broken Clouds at 1,200ft, Scattered Clouds at 1,200ft
Wind: 090° at 07 knots
Visibility: 6,000m
QNH: 1002
Dew Point: 9°C
Runway in Use: Runways 09L/R

Sunrise Today: 07:37
Sunset Today: 16:01

Forecast Weather (TAF) For London Heathrow Airport

Issued at 00:00 - (2 days 0 hrs ago)


Runway in Use: Likely Runways 27L/R

Forecast valid until 00:00 on Sunday

METAR/TAF RAW METAR / TAF

EGLL 272350Z 09007KT 6000 BKN012 10/09 Q1002 TEMPO SCT012

Weather Widget

Put weather from any of our airports on your website with our weather widget.

Find Another Search

Airport Search


Please Wait Please Wait - Loading
Close
Close

Login

Username:

Password:

Remember Me:

Remember me on this computer

Forgotten your password? Get a reset password sent to your registered e-mail address

Close

User Private Message

Subject:

Message: